createdAt,value
2022-09-14T00:02:00.278Z,99059.72
2022-09-14T00:04:29.771Z,99064.95
2022-09-14T00:06:59.156Z,99061.52
2022-09-14T00:09:28.108Z,99060.11
2022-09-14T00:12:10.894Z,99056.80
2022-09-14T00:14:40.781Z,99053.40
2022-09-14T00:17:24.528Z,99051.95
2022-09-14T00:20:07.895Z,99047.75
2022-09-14T00:22:37.270Z,99050.02
2022-09-14T00:25:07.110Z,99041.45
2022-09-14T00:27:36.578Z,99038.52
2022-09-14T00:30:06.911Z,99042.08
2022-09-14T00:32:35.830Z,99039.52
2022-09-14T00:35:05.807Z,99038.71
2022-09-14T00:37:35.305Z,99040.39
2022-09-14T00:40:06.563Z,99040.17
2022-09-14T00:42:37.407Z,99036.34
2022-09-14T00:45:22.541Z,99037.14
2022-09-14T00:47:53.849Z,99033.91
2022-09-14T00:50:23.931Z,99033.63
2022-09-14T00:52:52.753Z,99036.63
2022-09-14T00:55:24.263Z,99035.70
2022-09-14T00:57:54.526Z,99038.02
2022-09-14T01:00:27.572Z,99037.73
2022-09-14T01:02:56.781Z,99037.61
2022-09-14T01:06:03.482Z,99036.13
2022-09-14T01:09:07.112Z,99033.30
2022-09-14T01:12:08.367Z,99034.11
2022-09-14T01:15:28.847Z,99035.05
2022-09-14T01:18:16.509Z,99032.29
2022-09-14T01:20:50.839Z,99028.31
2022-09-14T01:23:25.767Z,99027.16
2022-09-14T01:26:33.405Z,99026.33
2022-09-14T01:29:21.531Z,99019.86
2022-09-14T01:32:22.801Z,99016.43
2022-09-14T01:35:29.970Z,99014.91
2022-09-14T01:38:22.653Z,99017.03
2022-09-14T01:40:52.977Z,99012.93
2022-09-14T01:43:41.146Z,99011.63
2022-09-14T01:46:18.484Z,99012.34
2022-09-14T01:49:12.005Z,99010.02
2022-09-14T01:51:49.973Z,99011.00
2022-09-14T01:54:27.187Z,99007.95
2022-09-14T01:57:09.873Z,99009.83
2022-09-14T01:59:44.694Z,99005.42
2022-09-14T02:02:23.274Z,98999.70
2022-09-14T02:05:03.965Z,98996.82
2022-09-14T02:07:46.888Z,98995.27
2022-09-14T02:10:18.047Z,98993.17
2022-09-14T02:12:47.239Z,98993.29
2022-09-14T02:15:16.373Z,98989.63
2022-09-14T02:17:45.534Z,98995.06
2022-09-14T02:20:26.981Z,98996.98
2022-09-14T02:22:56.524Z,98997.34
2022-09-14T02:25:41.600Z,98993.06
2022-09-14T02:28:12.064Z,98994.14
2022-09-14T02:31:10.500Z,98991.37
2022-09-14T02:34:23.862Z,98988.71
2022-09-14T02:37:38.323Z,98988.99
2022-09-14T02:40:26.270Z,98981.66
2022-09-14T02:43:03.530Z,98979.80
2022-09-14T02:45:55.170Z,98977.48
2022-09-14T02:48:38.532Z,98973.76
2022-09-14T02:51:25.893Z,98967.48
2022-09-14T02:54:43.576Z,98967.40
2022-09-14T02:57:26.120Z,98969.27
2022-09-14T02:59:55.865Z,98971.15
2022-09-14T03:02:25.374Z,98975.87
2022-09-14T03:04:54.671Z,98972.94
2022-09-14T03:07:23.560Z,98975.09
2022-09-14T03:10:06.197Z,98974.05
2022-09-14T03:12:48.634Z,98966.41
2022-09-14T03:15:31.629Z,98954.56
2022-09-14T03:18:01.021Z,98950.50
2022-09-14T03:20:44.328Z,98952.51
2022-09-14T03:23:15.001Z,98950.33
2022-09-14T03:25:45.197Z,98947.20
2022-09-14T03:28:14.389Z,98945.91
2022-09-14T03:31:02.414Z,98943.79
2022-09-14T03:33:32.479Z,98943.23
2022-09-14T03:36:09.942Z,98942.02
2022-09-14T03:38:39.446Z,98943.72
2022-09-14T03:41:23.813Z,98942.48
2022-09-14T03:43:53.061Z,98930.46
2022-09-14T03:46:25.292Z,98929.08
2022-09-14T03:48:56.315Z,98923.47
2022-09-14T03:51:25.706Z,98928.25
2022-09-14T03:54:08.528Z,98925.89
2022-09-14T03:56:37.515Z,98920.95
2022-09-14T03:59:10.218Z,98924.45
2022-09-14T04:01:39.413Z,98924.63
2022-09-14T04:04:22.326Z,98929.24
2022-09-14T04:06:50.898Z,98935.22
2022-09-14T04:09:19.927Z,98938.27
2022-09-14T04:11:49.104Z,98934.94
2022-09-14T04:14:18.330Z,98935.74
2022-09-14T04:16:47.834Z,98937.84
2022-09-14T04:19:17.605Z,98935.79
2022-09-14T04:21:47.391Z,98937.52
2022-09-14T04:24:17.254Z,98939.93
2022-09-14T04:26:59.950Z,98938.91
2022-09-14T04:29:30.776Z,98942.16
2022-09-14T04:31:59.997Z,98944.96
2022-09-14T04:34:29.091Z,98944.02
2022-09-14T04:36:58.295Z,98948.38
2022-09-14T04:39:27.272Z,98952.33
2022-09-14T04:41:56.093Z,98953.76
2022-09-14T04:44:25.494Z,98954.40
2022-09-14T04:46:55.026Z,98949.66
2022-09-14T04:49:24.198Z,98948.94
2022-09-14T04:52:10.942Z,98947.09
2022-09-14T04:54:39.889Z,98941.34
2022-09-14T04:57:11.128Z,98943.20
2022-09-14T04:59:39.892Z,98943.52
2022-09-14T05:02:09.107Z,98942.33
2022-09-14T05:04:37.769Z,98947.73
2022-09-14T05:07:06.853Z,98950.55
2022-09-14T05:09:36.031Z,98950.76
2022-09-14T05:12:08.049Z,98954.89
2022-09-14T05:14:37.064Z,98952.20
2022-09-14T05:17:06.367Z,98951.91
2022-09-14T05:19:35.477Z,98950.36
2022-09-14T05:22:04.244Z,98951.29
2022-09-14T05:24:33.318Z,98953.18
2022-09-14T05:27:02.549Z,98951.04
2022-09-14T05:29:32.565Z,98954.92
2022-09-14T05:32:01.733Z,98952.95
2022-09-14T05:34:30.661Z,98953.86
2022-09-14T05:37:01.876Z,98953.21
2022-09-14T05:39:34.337Z,98952.63
2022-09-14T05:42:03.224Z,98951.04
2022-09-14T05:44:34.705Z,98951.07
2022-09-14T05:47:04.987Z,98951.57
2022-09-14T05:49:33.865Z,98951.92
2022-09-14T05:52:03.964Z,98952.92
2022-09-14T05:54:33.356Z,98958.74
2022-09-14T05:57:02.801Z,98957.74
2022-09-14T05:59:31.887Z,98963.42
2022-09-14T06:02:07.450Z,98964.86
2022-09-14T06:04:49.243Z,98967.42
2022-09-14T06:07:19.108Z,98964.54
2022-09-14T06:09:52.824Z,98964.43
2022-09-14T06:12:29.642Z,98964.58
2022-09-14T06:14:59.560Z,98965.96
2022-09-14T06:17:32.510Z,98965.92
2022-09-14T06:20:04.708Z,98968.04
2022-09-14T06:22:38.550Z,98975.53
2022-09-14T06:25:08.491Z,98971.20
2022-09-14T06:27:44.617Z,98974.51
2022-09-14T06:30:13.920Z,98979.79
2022-09-14T06:32:58.241Z,98979.95
2022-09-14T06:35:39.303Z,98984.38
2022-09-14T06:38:10.090Z,98978.73
2022-09-14T06:40:39.573Z,98982.91
2022-09-14T06:43:18.573Z,98986.33
2022-09-14T06:46:05.122Z,98979.19
2022-09-14T06:48:40.567Z,98985.34
2022-09-14T06:51:19.125Z,98988.50
2022-09-14T06:53:50.464Z,98988.37
2022-09-14T06:56:21.728Z,98986.89
2022-09-14T06:58:52.872Z,98991.42
2022-09-14T07:01:23.016Z,98990.58
2022-09-14T07:03:52.975Z,98992.18
2022-09-14T07:06:25.252Z,98991.42
2022-09-14T07:08:56.387Z,98993.70
2022-09-14T07:11:41.433Z,98996.75
2022-09-14T07:14:11.786Z,99003.01
2022-09-14T07:16:41.247Z,98998.41
2022-09-14T07:19:23.636Z,99000.63
2022-09-14T07:21:54.925Z,99000.86
2022-09-14T07:24:24.291Z,98995.48
2022-09-14T07:26:53.696Z,98999.48
2022-09-14T07:29:36.026Z,98996.44
2022-09-14T07:32:05.791Z,99000.27
2022-09-14T07:34:35.592Z,99003.48
2022-09-14T07:37:18.329Z,99002.96
2022-09-14T07:39:47.912Z,99009.04
2022-09-14T07:42:17.552Z,99012.57
2022-09-14T07:45:00.095Z,99007.23
2022-09-14T07:47:29.644Z,99010.54
2022-09-14T07:49:58.885Z,99006.36
2022-09-14T07:52:28.462Z,99006.92
2022-09-14T07:54:57.888Z,99010.25
2022-09-14T07:57:52.151Z,99007.17
2022-09-14T08:00:18.262Z,99004.79
2022-09-14T08:02:53.155Z,99005.17
2022-09-14T08:05:35.830Z,99002.20
2022-09-14T08:08:04.733Z,99002.93
2022-09-14T08:10:47.447Z,99001.88
2022-09-14T08:13:29.945Z,98996.10
2022-09-14T08:16:03.057Z,99007.03
2022-09-14T08:18:34.250Z,99007.20
2022-09-14T08:21:12.178Z,99003.95
2022-09-14T08:23:41.773Z,99008.92
2022-09-14T08:26:13.760Z,99003.20
2022-09-14T08:28:43.740Z,99006.98
2022-09-14T08:31:16.457Z,99003.38
2022-09-14T08:33:48.375Z,98998.89
2022-09-14T08:36:19.659Z,99005.92
2022-09-14T08:38:48.871Z,99010.42
2022-09-14T08:41:30.133Z,98999.08
2022-09-14T08:44:12.230Z,98988.59
2022-09-14T08:47:00.612Z,98989.89
2022-09-14T08:49:52.511Z,98990.14
2022-09-14T08:52:49.531Z,99000.04
2022-09-14T08:55:50.219Z,98999.99
2022-09-14T08:58:48.309Z,98997.66
2022-09-14T09:01:40.624Z,98995.54
2022-09-14T09:04:38.090Z,98990.47
2022-09-14T09:07:37.528Z,98993.63
2022-09-14T09:10:09.291Z,98985.46
2022-09-14T09:12:42.969Z,98981.60
2022-09-14T09:15:33.041Z,98977.84
2022-09-14T09:18:16.368Z,98982.42
2022-09-14T09:20:56.341Z,98985.63
2022-09-14T09:23:29.322Z,98989.66
2022-09-14T09:26:00.995Z,98982.75
2022-09-14T09:28:31.620Z,98974.58
2022-09-14T09:31:14.641Z,98983.59
2022-09-14T09:33:57.666Z,98972.38
2022-09-14T09:36:35.000Z,98967.34
2022-09-14T09:39:07.832Z,98971.77
2022-09-14T09:42:17.610Z,98970.63
2022-09-14T09:45:09.420Z,98975.95
2022-09-14T09:47:42.932Z,98970.07
2022-09-14T09:50:15.833Z,98974.20
2022-09-14T09:52:56.423Z,98977.20
2022-09-14T09:55:37.595Z,98983.15
2022-09-14T09:58:35.289Z,98984.39
2022-09-14T10:01:12.250Z,98984.38
2022-09-14T10:03:52.208Z,98987.98
2022-09-14T10:06:23.290Z,98992.27
2022-09-14T10:08:54.482Z,98987.38
2022-09-14T10:11:38.963Z,98986.84
2022-09-14T10:14:26.917Z,98987.23
2022-09-14T10:17:24.846Z,98994.30
2022-09-14T10:19:55.738Z,98983.95
2022-09-14T10:22:36.060Z,98981.75
2022-09-14T10:25:23.448Z,98984.16
2022-09-14T10:27:55.656Z,98989.33
2022-09-14T10:30:45.947Z,98982.70
2022-09-14T10:33:18.940Z,98984.73
2022-09-14T10:36:00.430Z,98988.29
2022-09-14T10:38:47.361Z,98999.13
2022-09-14T10:42:01.707Z,98992.53
2022-09-14T10:45:02.542Z,98986.04
2022-09-14T10:47:46.164Z,98987.95
2022-09-14T10:50:54.014Z,98993.81
2022-09-14T10:53:25.946Z,98995.66
2022-09-14T10:56:23.901Z,99001.81
2022-09-14T10:59:05.339Z,99002.54
2022-09-14T11:01:56.120Z,98998.35
2022-09-14T11:04:37.692Z,99001.91
2022-09-14T11:07:17.024Z,98999.66
2022-09-14T11:10:37.535Z,99000.80
2022-09-14T11:13:25.893Z,99000.52
2022-09-14T11:16:48.552Z,98993.20
2022-09-14T11:20:02.336Z,99000.52
2022-09-14T11:23:02.015Z,98994.09
2022-09-14T11:28:41.304Z,98985.23
2022-09-14T11:34:30.353Z,98977.12
2022-09-14T11:37:18.236Z,98980.52
2022-09-14T11:40:03.813Z,98987.70
2022-09-14T11:43:05.012Z,98988.46
2022-09-14T11:45:53.557Z,98990.74
2022-09-14T11:48:52.518Z,98988.50
2022-09-14T11:51:26.785Z,98982.56
2022-09-14T11:54:00.204Z,98982.77
2022-09-14T11:57:07.358Z,98980.48
2022-09-14T11:59:58.041Z,98984.04
2022-09-14T12:02:43.483Z,98984.41
2022-09-14T12:05:13.364Z,98986.94
2022-09-14T12:07:52.154Z,98991.10
2022-09-14T12:10:22.683Z,98990.90
2022-09-14T12:13:06.332Z,98988.85
2022-09-14T12:15:48.745Z,98989.52
2022-09-14T12:18:24.068Z,98993.36
2022-09-14T12:21:08.511Z,98981.95
2022-09-14T12:24:00.567Z,98977.04
2022-09-14T12:26:34.635Z,98977.63
2022-09-14T12:29:26.777Z,98974.48
2022-09-14T12:32:00.741Z,98973.02
2022-09-14T12:34:35.308Z,98974.59
2022-09-14T12:37:34.224Z,98975.58
2022-09-14T12:40:31.761Z,98975.67
2022-09-14T12:43:40.787Z,98978.69
2022-09-14T12:46:23.339Z,98973.79
2022-09-14T12:49:03.401Z,98974.31
2022-09-14T12:51:51.450Z,98971.50
2022-09-14T12:54:25.881Z,98972.85
2022-09-14T12:56:58.422Z,98967.81
2022-09-14T12:59:46.418Z,98969.66
2022-09-14T13:02:48.038Z,98961.77
2022-09-14T13:05:22.959Z,98964.49
2022-09-14T13:07:54.561Z,98965.05
2022-09-14T13:10:34.623Z,98960.50
2022-09-14T13:13:19.131Z,98957.75
2022-09-14T13:16:06.320Z,98953.66
2022-09-14T13:18:38.404Z,98957.48
2022-09-14T13:21:25.879Z,98966.06
2022-09-14T13:24:24.435Z,98970.95
2022-09-14T13:26:56.805Z,98972.00
2022-09-14T13:29:27.439Z,98971.09
2022-09-14T13:32:02.547Z,98965.05
2022-09-14T13:34:35.708Z,98960.63
2022-09-14T13:37:06.577Z,98955.11
2022-09-14T13:39:39.006Z,98949.42
2022-09-14T13:42:23.040Z,98957.75
2022-09-14T13:44:53.703Z,98964.80
2022-09-14T13:47:39.401Z,98965.98
2022-09-14T13:50:12.194Z,98963.16
2022-09-14T13:53:01.320Z,98964.38
2022-09-14T13:55:34.691Z,98964.02
2022-09-14T13:58:16.137Z,98956.02
2022-09-14T14:00:55.076Z,98949.17
2022-09-14T14:03:41.073Z,98943.64
2022-09-14T14:06:31.009Z,98939.96
2022-09-14T14:09:05.444Z,98940.61
2022-09-14T14:11:55.169Z,98932.28
2022-09-14T14:14:31.184Z,98934.85
2022-09-14T14:17:15.973Z,98935.23
2022-09-14T14:19:45.767Z,98935.61
2022-09-14T14:22:15.076Z,98928.23
2022-09-14T14:25:09.521Z,98925.13
2022-09-14T14:27:38.114Z,98929.38
2022-09-14T14:30:18.982Z,98929.42
2022-09-14T14:33:01.570Z,98930.38
2022-09-14T14:35:31.668Z,98928.28
2022-09-14T14:38:00.562Z,98929.23
2022-09-14T14:40:29.788Z,98924.56
2022-09-14T14:43:00.246Z,98920.79
2022-09-14T14:45:42.594Z,98913.88
2022-09-14T14:48:12.057Z,98918.73
2022-09-14T14:50:41.225Z,98918.52
2022-09-14T14:53:10.452Z,98921.11
2022-09-14T14:55:40.525Z,98920.09
2022-09-14T14:58:16.696Z,98911.55
2022-09-14T15:00:47.806Z,98909.80
2022-09-14T15:03:19.748Z,98912.98
2022-09-14T15:06:16.687Z,98914.64
2022-09-14T15:08:46.198Z,98918.07
2022-09-14T15:11:19.025Z,98912.19
2022-09-14T15:14:01.683Z,98913.60
2022-09-14T15:16:31.486Z,98912.02
2022-09-14T15:19:00.539Z,98911.52
2022-09-14T15:21:29.810Z,98914.90
2022-09-14T15:23:59.895Z,98914.18
2022-09-14T15:26:29.229Z,98904.09
2022-09-14T15:29:18.303Z,98902.06
2022-09-14T15:34:30.319Z,98902.48
2022-09-14T15:36:59.199Z,98900.65
2022-09-14T15:39:30.541Z,98899.11
2022-09-14T15:42:13.008Z,98896.12
2022-09-14T15:44:42.500Z,98903.16
2022-09-14T15:47:16.175Z,98902.35
2022-09-14T15:49:45.691Z,98898.36
2022-09-14T15:52:14.736Z,98897.04
2022-09-14T15:54:43.607Z,98897.27
2022-09-14T15:57:14.200Z,98899.02
2022-09-14T15:59:44.912Z,98890.86
2022-09-14T16:02:14.248Z,98885.48
2022-09-14T16:04:43.548Z,98881.57
2022-09-14T16:07:26.632Z,98879.05
2022-09-14T16:09:59.221Z,98877.34
2022-09-14T16:12:28.231Z,98877.48
2022-09-14T16:15:15.847Z,98882.01
2022-09-14T16:17:54.291Z,98883.48
2022-09-14T16:20:23.865Z,98881.21
2022-09-14T16:22:53.037Z,98879.03
2022-09-14T16:25:22.981Z,98880.52
2022-09-14T16:27:52.540Z,98884.72
2022-09-14T16:30:21.830Z,98884.70
2022-09-14T16:32:51.225Z,98883.79
2022-09-14T16:35:20.341Z,98885.73
2022-09-14T16:37:48.933Z,98884.15
2022-09-14T16:40:32.142Z,98879.27
2022-09-14T16:43:06.624Z,98877.70
2022-09-14T16:45:35.593Z,98873.00
2022-09-14T16:48:05.232Z,98873.42
2022-09-14T16:50:34.560Z,98869.41
2022-09-14T16:53:04.310Z,98863.84
2022-09-14T16:55:47.102Z,98864.34
2022-09-14T16:58:15.974Z,98864.41
2022-09-14T17:01:07.372Z,98861.23
2022-09-14T17:03:38.810Z,98860.59
2022-09-14T17:06:15.161Z,98862.11
2022-09-14T17:09:08.822Z,98864.98
2022-09-14T17:11:41.689Z,98865.44
2022-09-14T17:14:16.325Z,98867.76
2022-09-14T17:17:01.127Z,98867.02
2022-09-14T17:19:31.024Z,98859.89
2022-09-14T17:22:00.992Z,98857.95
2022-09-14T17:24:29.958Z,98858.84
2022-09-14T17:26:58.710Z,98854.73
2022-09-14T17:29:28.287Z,98861.12
2022-09-14T17:32:00.829Z,98864.54
2022-09-14T17:34:31.799Z,98867.40
2022-09-14T17:37:03.859Z,98860.20
2022-09-14T17:39:40.432Z,98860.84
2022-09-14T17:42:23.268Z,98861.38
2022-09-14T17:48:44.206Z,98857.07
2022-09-14T17:51:31.613Z,98858.73
2022-09-14T17:54:20.691Z,98859.14
2022-09-14T17:56:53.555Z,98855.17
2022-09-14T17:59:24.637Z,98857.13
2022-09-14T18:01:54.699Z,98854.73
2022-09-14T18:04:26.797Z,98862.96
2022-09-14T18:06:59.491Z,98863.25
2022-09-14T18:09:45.567Z,98868.95
2022-09-14T18:12:16.948Z,98868.03
2022-09-14T18:14:57.714Z,98871.27
2022-09-14T18:17:33.414Z,98870.81
2022-09-14T18:20:16.386Z,98869.56
2022-09-14T18:22:45.433Z,98868.86
2022-09-14T18:25:20.755Z,98866.14
2022-09-14T18:27:53.008Z,98868.98
2022-09-14T18:30:21.728Z,98861.66
2022-09-14T18:32:51.875Z,98863.27
2022-09-14T18:35:47.098Z,98861.49
2022-09-14T18:38:17.350Z,98859.96
2022-09-14T18:40:46.695Z,98861.79
2022-09-14T18:43:17.024Z,98858.60
2022-09-14T18:45:53.142Z,98860.17
2022-09-14T18:48:26.916Z,98860.71
2022-09-14T18:50:56.096Z,98854.90
2022-09-14T18:53:38.906Z,98850.59
2022-09-14T18:56:21.187Z,98850.15
2022-09-14T18:59:16.698Z,98848.09
2022-09-14T19:01:45.842Z,98854.25
2022-09-14T19:04:15.982Z,98849.98
2022-09-14T19:06:59.363Z,98847.70
2022-09-14T19:09:28.329Z,98843.90
2022-09-14T19:11:58.270Z,98846.30
2022-09-14T19:14:27.487Z,98843.56
2022-09-14T19:16:58.946Z,98843.29
2022-09-14T19:19:42.076Z,98839.33
2022-09-14T19:22:13.512Z,98834.36
2022-09-14T19:24:42.644Z,98831.55
2022-09-14T19:27:14.846Z,98827.54
2022-09-14T19:29:43.909Z,98828.87
2022-09-14T19:32:14.540Z,98827.56
2022-09-14T19:34:43.874Z,98825.73
2022-09-14T19:37:26.673Z,98824.86
2022-09-14T19:40:12.897Z,98823.09
2022-09-14T19:42:47.039Z,98820.10
2022-09-14T19:48:03.609Z,98809.64
2022-09-14T19:50:32.760Z,98808.21
2022-09-14T19:53:04.569Z,98801.26
2022-09-14T19:55:37.182Z,98800.61
2022-09-14T19:58:05.767Z,98800.17
2022-09-14T20:00:34.755Z,98798.80
2022-09-14T20:03:04.524Z,98803.18
2022-09-14T20:05:34.485Z,98803.12
2022-09-14T20:08:02.933Z,98800.55
2022-09-14T20:10:32.601Z,98795.07
2022-09-14T20:13:01.495Z,98797.38
2022-09-14T20:15:31.324Z,98797.86
2022-09-14T20:18:00.906Z,98799.77
2022-09-14T20:20:29.804Z,98796.95
2022-09-14T20:23:01.606Z,98799.81
2022-09-14T20:25:30.765Z,98797.85
2022-09-14T20:28:00.522Z,98798.70
2022-09-14T20:30:43.441Z,98797.95
2022-09-14T20:33:14.652Z,98800.89
2022-09-14T20:36:29.388Z,98803.05
2022-09-14T20:39:12.587Z,98806.02
2022-09-14T20:41:43.810Z,98805.72
2022-09-14T20:44:26.702Z,98806.63
2022-09-14T20:47:09.158Z,98810.16
2022-09-14T20:49:39.638Z,98811.68
2022-09-14T20:52:13.540Z,98809.83
2022-09-14T20:54:43.702Z,98806.77
2022-09-14T20:57:28.406Z,98807.01
2022-09-14T20:59:58.982Z,98804.94
2022-09-14T21:02:41.537Z,98806.77
2022-09-14T21:05:24.040Z,98799.42
2022-09-14T21:08:07.236Z,98798.49
2022-09-14T21:10:39.787Z,98798.19
2022-09-14T21:13:08.948Z,98793.47
2022-09-14T21:15:51.857Z,98794.73
2022-09-14T21:18:21.201Z,98795.61
2022-09-14T21:20:50.035Z,98790.90
2022-09-14T21:23:18.981Z,98790.84
2022-09-14T21:25:56.050Z,98795.95
2022-09-14T21:28:40.404Z,98801.73
2022-09-14T21:31:23.661Z,98801.05
2022-09-14T21:33:55.929Z,98789.13
2022-09-14T21:36:28.658Z,98782.12
2022-09-14T21:39:01.459Z,98782.65
2022-09-14T21:41:45.850Z,98783.67
2022-09-14T21:44:33.701Z,98778.42
2022-09-14T21:47:03.326Z,98775.33
2022-09-14T21:49:46.425Z,98777.79
2022-09-14T21:52:15.254Z,98778.86
2022-09-14T21:54:44.705Z,98776.02
2022-09-14T21:57:27.517Z,98772.09
2022-09-14T22:00:11.631Z,98771.16
2022-09-14T22:02:41.060Z,98768.00
2022-09-14T22:05:09.867Z,98767.02
2022-09-14T22:07:42.058Z,98766.11
2022-09-14T22:10:11.251Z,98768.42
2022-09-14T22:12:54.835Z,98761.58
2022-09-14T22:15:37.697Z,98760.07
2022-09-14T22:18:08.110Z,98760.88
2022-09-14T22:20:58.964Z,98767.63
2022-09-14T22:23:42.056Z,98764.60
2022-09-14T22:26:12.698Z,98760.77
2022-09-14T22:28:41.896Z,98762.49
2022-09-14T22:31:11.220Z,98758.93
2022-09-14T22:33:40.472Z,98757.46
2022-09-14T22:36:11.529Z,98753.42
2022-09-14T22:38:41.233Z,98749.41
2022-09-14T22:41:24.570Z,98749.92
2022-09-14T22:43:54.607Z,98751.34
2022-09-14T22:46:37.513Z,98757.05
2022-09-14T22:49:19.869Z,98759.48
2022-09-14T22:52:03.026Z,98761.04
2022-09-14T22:54:45.405Z,98761.57
2022-09-14T22:57:14.027Z,98757.75
2022-09-14T22:59:56.340Z,98751.06
2022-09-14T23:02:25.711Z,98746.33
2022-09-14T23:04:56.756Z,98744.73
2022-09-14T23:07:25.635Z,98742.65
2022-09-14T23:10:08.773Z,98743.48
2022-09-14T23:12:38.233Z,98745.63
2022-09-14T23:15:20.875Z,98743.64
2022-09-14T23:18:03.344Z,98744.56
2022-09-14T23:20:33.103Z,98742.52
2022-09-14T23:23:02.421Z,98734.59
2022-09-14T23:25:44.930Z,98735.45
2022-09-14T23:28:27.893Z,98734.29
2022-09-14T23:30:56.876Z,98727.19
2022-09-14T23:33:27.479Z,98728.63
2022-09-14T23:35:56.768Z,98723.86
2022-09-14T23:38:26.519Z,98719.30
2022-09-14T23:40:55.227Z,98715.48
2022-09-14T23:43:24.064Z,98712.04
2022-09-14T23:45:52.978Z,98712.20
2022-09-14T23:48:22.192Z,98701.73
2022-09-14T23:51:06.633Z,98702.36
2022-09-14T23:53:35.909Z,98705.57
2022-09-14T23:56:18.397Z,98707.94
2022-09-14T23:58:47.756Z,98706.86
